Joanna — D5EO2 — position and weather

sailwx.info

Track history (hours):
 
Tides and Currents Weather Stations Pressure Air Temp Water Temp Dewpoint Dewpoint Depression Visibility Wind Speed Wind Dir Waves Ship Positions

Joanna

Last reported at 2018-Aug-13 06:04 UTC. Time now 2018-Aug-16 20:17 UTC.
Position N 35°41' E 015°20'.

Length 184 m; draft 9 m.

Type: Ship (hazmat cat C). MMSI: 636016118.

Date/timePositionNaut miles runAvg speedWind from/ knotsBaromVisibWave heightAir tempDewpointWater temp
2018-Aug-13 06:04N 35°41' E 015°20'116.6
2018-Aug-13 06:00N 35°42' E 015°19'1216.4
2018-Aug-13 05:15N 35°44' E 015°04'416.1
2018-Aug-13 05:00N 35°44' E 014°59'816.1
2018-Aug-13 04:30N 35°46' E 014°50'816.0
2018-Aug-13 04:00N 35°46' E 014°40'611.6
2018-Aug-13 03:27N 35°49' E 014°33'0 0.8
2018-Aug-13 02:58N 35°49' E 014°33'0 0.0
2018-Aug-13 02:22N 35°49' E 014°33'0 0.0
2018-Aug-13 00:25N 35°49' E 014°33'0 0.0
2018-Aug-12 23:04N 35°49' E 014°33'0 0.1
2018-Aug-12 22:58N 35°49' E 014°33'0 0.0
2018-Aug-12 22:28N 35°49' E 014°33'0 0.0
2018-Aug-12 21:58N 35°49' E 014°33'0 0.0
2018-Aug-12 21:27N 35°49' E 014°33'0 0.0
2018-Aug-12 18:24N 35°49' E 014°33'8 0.3
2018-Aug-11 10:57N 35°50' E 014°43'0 0.1
2018-Aug-11 10:15N 35°50' E 014°43'0 0.3
2018-Aug-11 10:00N 35°50' E 014°43'5 6.0
2018-Aug-11 09:11N 35°53' E 014°48'0 1.0
2018-Aug-11 08:55N 35°52' E 014°48'0 0.2
2018-Aug-11 08:18N 35°52' E 014°48'0 0.1
2018-Aug-11 08:00N 35°52' E 014°48'0 0.0
2018-Aug-11 07:30N 35°52' E 014°48'0 0.0
2018-Aug-11 07:00N 35°52' E 014°48'0 0.0
2018-Aug-11 06:30N 35°52' E 014°48'0 0.1
2018-Aug-11 05:51N 35°52' E 014°48'0 0.0
2018-Aug-11 05:30N 35°52' E 014°48'0 0.0
2018-Aug-11 04:57N 35°52' E 014°48'0 0.0
2018-Aug-11 04:24N 35°52' E 014°48'0 0.1
2018-Aug-11 04:00N 35°52' E 014°48'0 0.0
2018-Aug-11 03:27N 35°52' E 014°48'0 0.0
2018-Aug-11 02:59N 35°52' E 014°48'0 0.0
2018-Aug-11 02:29N 35°52' E 014°48'0 0.0
2018-Aug-11 01:59N 35°52' E 014°48'0 0.0
2018-Aug-11 01:29N 35°52' E 014°48'0 0.0
2018-Aug-11 00:59N 35°52' E 014°48'0 0.0
2018-Aug-11 00:29N 35°52' E 014°48'0 0.0
2018-Aug-10 23:59N 35°52' E 014°48'0 0.0
2018-Aug-10 23:20N 35°52' E 014°48'0 0.0
2018-Aug-10 22:56N 35°52' E 014°48'0 0.0
2018-Aug-10 22:20N 35°52' E 014°48'0 0.0
2018-Aug-10 21:58N 35°52' E 014°48'0 0.0
2018-Aug-10 21:28N 35°52' E 014°48'0 0.3
2018-Aug-10 21:00N 35°52' E 014°48'5 5.8
2018-Aug-10 20:10N 35°48' E 014°51'0 0.2
2018-Aug-10 19:55N 35°48' E 014°51'0 0.1
2018-Aug-10 19:28N 35°48' E 014°51'0 0.0
2018-Aug-10 18:58N 35°48' E 014°51'0 0.2
2018-Aug-10 18:01N 35°48' E 014°51'0 0.6
2018-Aug-10 17:54N 35°48' E 014°51'2 3.9
2018-Aug-10 17:30N 35°48' E 014°49'714.2
2018-Aug-10 17:00N 35°45' E 014°41'714.7
2018-Aug-10 16:30N 35°43' E 014°32'1014.0
2018-Aug-10 15:46N 35°45' E 014°20'415.1
2018-Aug-10 15:29N 35°47' E 014°16'715.3
2018-Aug-10 15:00N 35°52' E 014°08'815.3
2018-Aug-10 14:30N 35°56' E 014°01'715.0
2018-Aug-10 14:01N 36°01' E 013°54'815.0
2018-Aug-10 13:30N 36°05' E 013°46'815.3
2018-Aug-10 13:00N 36°10' E 013°38'815.4
2018-Aug-10 12:30N 36°15' E 013°31'815.6
2018-Aug-10 12:00N 36°19' E 013°23'815.9
2018-Aug-10 11:30N 36°24' E 013°15'816.0
2018-Aug-10 11:00N 36°29' E 013°08'816.0
2018-Aug-10 10:30N 36°34' E 012°59'815.8
2018-Aug-10 10:00N 36°38' E 012°51'815.2
2018-Aug-10 09:30N 36°43' E 012°44'815.0
2018-Aug-10 09:00N 36°47' E 012°36'814.9
2018-Aug-10 08:29N 36°52' E 012°28'15814.2
2018-Aug-09 21:24N 39°24' E 011°39'614.6
2018-Aug-09 21:00N 39°30' E 011°39'154 9.0
2018-Aug-09 03:55N 42°04' E 011°42'3 2.4
2018-Aug-09 02:51N 42°04' E 011°39'4914.0
2018-Aug-08 23:22N 42°09' E 010°33'614.7
2018-Aug-08 22:56N 42°10' E 010°25'714.9
2018-Aug-08 22:27N 42°11' E 010°15'815.2
2018-Aug-08 21:55N 42°14' E 010°05'716.0
2018-Aug-08 21:30N 42°17' E 009°57'1515.3
2018-Aug-08 20:33N 42°30' E 009°47'216.4
2018-Aug-08 20:25N 42°32' E 009°46'1016.2
2018-Aug-08 19:47N 42°42' E 009°41'2516.0
2018-Aug-08 18:15N 43°06' E 009°36'415.9
2018-Aug-08 18:00N 43°08' E 009°40'816.0
2018-Aug-08 17:30N 43°12' E 009°49'815.7
2018-Aug-08 17:00N 43°17' E 009°58'815.8
2018-Aug-08 16:30N 43°23' E 010°04'815.4
2018-Aug-08 16:00N 43°30' E 010°10'611.6
2018-Aug-08 15:30N 43°32' E 010°17'2 4.5
2018-Aug-08 15:00N 43°35' E 010°18'0 0.0
2018-Aug-08 14:25N 43°35' E 010°18'0 0.0
2018-Aug-08 13:58N 43°35' E 010°18'0 0.0
2018-Aug-08 13:31N 43°35' E 010°18'0 0.0
2018-Aug-08 13:00N 43°35' E 010°18'0 0.1
2018-Aug-08 12:27N 43°35' E 010°18'0 0.1
2018-Aug-08 12:00N 43°35' E 010°18'0 0.0
2018-Aug-08 11:24N 43°35' E 010°18'0 0.0
2018-Aug-08 11:00N 43°35' E 010°18'0 0.0
2018-Aug-08 10:21N 43°35' E 010°18'0 0.0
2018-Aug-08 10:00N 43°35' E 010°18'0 0.0
2018-Aug-08 09:30N 43°35' E 010°18'0 0.0
2018-Aug-08 09:00N 43°35' E 010°18'0 0.0
2018-Aug-08 08:30N 43°35' E 010°18'0 0.0
2018-Aug-08 07:51N 43°35' E 010°18'0 0.0
2018-Aug-08 07:30N 43°35' E 010°18'0 0.0
2018-Aug-08 07:00N 43°35' E 010°18'0 0.0
2018-Aug-08 06:30N 43°35' E 010°18'0 0.0
2018-Aug-08 06:00N 43°35' E 010°18'0 0.0
2018-Aug-08 05:27N 43°35' E 010°18'0 0.0
2018-Aug-08 05:00N 43°35' E 010°18'0 0.0
2018-Aug-08 04:30N 43°35' E 010°18'0 0.9
2018-Aug-08 04:00N 43°34' E 010°18'3 6.4
2018-Aug-08 03:30N 43°32' E 010°16'0 0.4
2018-Aug-08 03:00N 43°32' E 010°15'2 4.9
2018-Aug-08 02:30N 43°30' E 010°14'6 9.1
2018-Aug-08 01:51N 43°25' E 010°08'3 9.2
2018-Aug-08 01:30N 43°23' E 010°05'5 9.4
2018-Aug-08 01:00N 43°19' E 010°01'1 2.4
2018-Aug-08 00:30N 43°18' E 010°00'0 0.3
2018-Aug-08 00:00N 43°18' E 009°60'0 0.4
2018-Aug-07 23:30N 43°18' E 009°60'0 0.3
2018-Aug-07 23:00N 43°18' E 009°59'0 0.5
2018-Aug-07 22:30N 43°18' E 009°59'0 0.9
2018-Aug-07 22:00N 43°18' E 009°58'2 4.3
2018-Aug-07 21:30N 43°17' E 009°56'4 7.2
2018-Aug-07 21:00N 43°16' E 009°51'4 7.5
2018-Aug-07 20:30N 43°19' E 009°48'5 9.3
2018-Aug-07 20:00N 43°23' E 009°45'5 9.2
2018-Aug-07 19:30N 43°27' E 009°41'5 9.1
2018-Aug-07 19:00N 43°31' E 009°38'5 9.0
2018-Aug-07 18:30N 43°35' E 009°35'5 9.0
2018-Aug-07 18:00N 43°38' E 009°32'4 8.9
2018-Aug-07 17:30N 43°42' E 009°29'4 8.9
2018-Aug-07 17:00N 43°46' E 009°25'4 8.8
2018-Aug-07 16:30N 43°50' E 009°22'4 8.7
2018-Aug-07 16:00N 43°54' E 009°19'4 8.6
2018-Aug-07 15:30N 43°57' E 009°16'4 8.7
2018-Aug-07 15:00N 44°01' E 009°13'510.1
2018-Aug-07 14:30N 44°05' E 009°10'713.9
2018-Aug-07 14:00N 44°11' E 009°05'815.5
2018-Aug-07 13:31N 44°18' E 008°59'612.5
2018-Aug-07 13:01N 44°24' E 008°56'1 2.4
2018-Aug-07 12:30N 44°24' E 008°54'0 0.0
2018-Aug-07 11:57N 44°24' E 008°54'0 0.0
2018-Aug-07 11:30N 44°24' E 008°54'0 0.0
2018-Aug-07 11:00N 44°24' E 008°54'0 0.0
2018-Aug-07 10:26N 44°24' E 008°54'0 0.0
2018-Aug-07 09:56N 44°24' E 008°54'0 0.0
2018-Aug-07 09:29N 44°24' E 008°54'0 0.0
2018-Aug-07 08:59N 44°24' E 008°54'0 0.0
2018-Aug-07 08:29N 44°24' E 008°54'0 0.0
2018-Aug-07 07:59N 44°24' E 008°54'0 0.0
2018-Aug-07 07:29N 44°24' E 008°54'0 0.0
2018-Aug-07 06:59N 44°24' E 008°54'0 0.0
2018-Aug-07 06:29N 44°24' E 008°54'0 0.0
2018-Aug-07 05:56N 44°24' E 008°54'0 0.0
2018-Aug-07 05:26N 44°24' E 008°54'0 0.0
2018-Aug-07 04:50N 44°24' E 008°54'0 0.0
2018-Aug-07 04:20N 44°24' E 008°54'0 0.0
2018-Aug-07 03:59N 44°24' E 008°54'0 0.0
2018-Aug-07 03:30N 44°24' E 008°54'3 5.1
2018-Aug-07 03:00N 44°23' E 008°57'4 8.8
2018-Aug-07 02:31N 44°19' E 008°59'4 8.1
2018-Aug-07 02:00N 44°15' E 008°57'510.5
2018-Aug-07 01:30N 44°10' E 008°55'4 8.0
2018-Aug-07 01:00N 44°06' E 008°53'4 8.1
2018-Aug-07 00:31N 44°03' E 008°50'4 8.0
2018-Aug-07 00:00N 43°60' E 008°46'4 8.1
2018-Aug-06 23:31N 43°57' E 008°42'4 8.2
2018-Aug-06 23:01N 43°55' E 008°37'4 8.1
2018-Aug-06 22:31N 43°52' E 008°33'713.2
2018-Aug-06 22:01N 43°48' E 008°26'714.9
2018-Aug-06 21:30N 43°44' E 008°17'814.9
2018-Aug-06 21:00N 43°39' E 008°09'714.9
2018-Aug-06 20:31N 43°35' E 008°01'815.0
2018-Aug-06 20:00N 43°30' E 007°53'815.2
2018-Aug-06 19:30N 43°26' E 007°44'715.2
2018-Aug-06 19:00N 43°21' E 007°36'815.2
2018-Aug-06 18:30N 43°17' E 007°27'815.4
2018-Aug-06 18:00N 43°12' E 007°19'815.6
2018-Aug-06 17:28N 43°07' E 007°10'715.4
2018-Aug-06 17:00N 43°02' E 007°02'815.3
2018-Aug-06 16:30N 42°58' E 006°54'1315.2
2018-Aug-06 15:39N 42°50' E 006°40'215.2
2018-Aug-06 15:30N 42°49' E 006°38'814.9
2018-Aug-06 14:57N 42°44' E 006°28'715.1
2018-Aug-06 14:31N 42°44' E 006°19'5714.0
2018-Aug-06 10:24N 43°10' E 005°10'1213.5
2018-Aug-06 09:31N 43°20' E 005°18'2 0.0
2018-Aug-04 14:14N 43°21' E 005°20'0 0.5
2018-Aug-04 14:00N 43°21' E 005°20'4 8.6
2018-Aug-04 13:30N 43°19' E 005°15'5 9.4
2018-Aug-04 13:00N 43°15' E 005°10'612.6
2018-Aug-04 12:29N 43°09' E 005°10'6 2.6
2018-Aug-04 10:17N 43°03' E 005°09'25 5.0
2018-Aug-04 05:21N 42°38' E 005°11'1 0.4
2018-Aug-04 03:39N 42°39' E 005°12'2 0.4
2018-Aug-03 23:57N 42°40' E 005°11'0 0.3
2018-Aug-03 23:30N 42°41' E 005°11'1 0.2
2018-Aug-03 18:27N 42°40' E 005°11'0 0.5
2018-Aug-03 17:56N 42°40' E 005°11'0 0.6
2018-Aug-03 17:30N 42°39' E 005°11'0 0.5
2018-Aug-03 17:00N 42°39' E 005°11'0 0.5
2018-Aug-03 16:29N 42°39' E 005°12'0 0.4
2018-Aug-03 16:00N 42°39' E 005°12'0 0.4
2018-Aug-03 15:30N 42°39' E 005°12'1 0.2
2018-Aug-03 12:30N 42°39' E 005°13'0 0.2
2018-Aug-03 11:55N 42°39' E 005°13'1 0.2
2018-Aug-03 07:20N 42°39' E 005°11'0 0.4
2018-Aug-03 06:58N 42°39' E 005°11'0 0.5
2018-Aug-03 06:19N 42°38' E 005°11'  
Track history (hours):
 
Tides and Currents Weather Stations Pressure Air Temp Water Temp Dewpoint Dewpoint Depression Visibility Wind Speed Wind Dir Waves Ship Positions

Joanna

Last reported at 2018-Aug-13 06:04 UTC. Time now 2018-Aug-16 20:17 UTC.
Position N 35°41' E 015°20'.

Length 184 m; draft 9 m.

Type: Ship (hazmat cat C). MMSI: 636016118.

Date/timePositionNaut miles runAvg speedWind from/ knotsBaromVisibWave heightAir tempDewpointWater temp
2018-Aug-13 06:04N 35°41' E 015°20'116.6
2018-Aug-13 06:00N 35°42' E 015°19'1216.4
2018-Aug-13 05:15N 35°44' E 015°04'416.1
2018-Aug-13 05:00N 35°44' E 014°59'816.1
2018-Aug-13 04:30N 35°46' E 014°50'816.0
2018-Aug-13 04:00N 35°46' E 014°40'611.6
2018-Aug-13 03:27N 35°49' E 014°33'0 0.8
2018-Aug-13 02:58N 35°49' E 014°33'0 0.0
2018-Aug-13 02:22N 35°49' E 014°33'0 0.0
2018-Aug-13 00:25N 35°49' E 014°33'0 0.0
2018-Aug-12 23:04N 35°49' E 014°33'0 0.1
2018-Aug-12 22:58N 35°49' E 014°33'0 0.0
2018-Aug-12 22:28N 35°49' E 014°33'0 0.0
2018-Aug-12 21:58N 35°49' E 014°33'0 0.0
2018-Aug-12 21:27N 35°49' E 014°33'0 0.0
2018-Aug-12 18:24N 35°49' E 014°33'8 0.3
2018-Aug-11 10:57N 35°50' E 014°43'0 0.1
2018-Aug-11 10:15N 35°50' E 014°43'0 0.3
2018-Aug-11 10:00N 35°50' E 014°43'5 6.0
2018-Aug-11 09:11N 35°53' E 014°48'0 1.0
2018-Aug-11 08:55N 35°52' E 014°48'0 0.2
2018-Aug-11 08:18N 35°52' E 014°48'0 0.1
2018-Aug-11 08:00N 35°52' E 014°48'0 0.0
2018-Aug-11 07:30N 35°52' E 014°48'0 0.0
2018-Aug-11 07:00N 35°52' E 014°48'0 0.0
2018-Aug-11 06:30N 35°52' E 014°48'0 0.1
2018-Aug-11 05:51N 35°52' E 014°48'0 0.0
2018-Aug-11 05:30N 35°52' E 014°48'0 0.0
2018-Aug-11 04:57N 35°52' E 014°48'0 0.0
2018-Aug-11 04:24N 35°52' E 014°48'0 0.1
2018-Aug-11 04:00N 35°52' E 014°48'0 0.0
2018-Aug-11 03:27N 35°52' E 014°48'0 0.0
2018-Aug-11 02:59N 35°52' E 014°48'0 0.0
2018-Aug-11 02:29N 35°52' E 014°48'0 0.0
2018-Aug-11 01:59N 35°52' E 014°48'0 0.0
2018-Aug-11 01:29N 35°52' E 014°48'0 0.0
2018-Aug-11 00:59N 35°52' E 014°48'0 0.0
2018-Aug-11 00:29N 35°52' E 014°48'0 0.0
2018-Aug-10 23:59N 35°52' E 014°48'0 0.0
2018-Aug-10 23:20N 35°52' E 014°48'0 0.0
2018-Aug-10 22:56N 35°52' E 014°48'0 0.0
2018-Aug-10 22:20N 35°52' E 014°48'0 0.0
2018-Aug-10 21:58N 35°52' E 014°48'0 0.0
2018-Aug-10 21:28N 35°52' E 014°48'0 0.3
2018-Aug-10 21:00N 35°52' E 014°48'5 5.8
2018-Aug-10 20:10N 35°48' E 014°51'0 0.2
2018-Aug-10 19:55N 35°48' E 014°51'0 0.1
2018-Aug-10 19:28N 35°48' E 014°51'0 0.0
2018-Aug-10 18:58N 35°48' E 014°51'0 0.2
2018-Aug-10 18:01N 35°48' E 014°51'0 0.6
2018-Aug-10 17:54N 35°48' E 014°51'2 3.9
2018-Aug-10 17:30N 35°48' E 014°49'714.2
2018-Aug-10 17:00N 35°45' E 014°41'714.7
2018-Aug-10 16:30N 35°43' E 014°32'1014.0
2018-Aug-10 15:46N 35°45' E 014°20'415.1
2018-Aug-10 15:29N 35°47' E 014°16'715.3
2018-Aug-10 15:00N 35°52' E 014°08'815.3
2018-Aug-10 14:30N 35°56' E 014°01'715.0
2018-Aug-10 14:01N 36°01' E 013°54'815.0
2018-Aug-10 13:30N 36°05' E 013°46'815.3
2018-Aug-10 13:00N 36°10' E 013°38'815.4
2018-Aug-10 12:30N 36°15' E 013°31'815.6
2018-Aug-10 12:00N 36°19' E 013°23'815.9
2018-Aug-10 11:30N 36°24' E 013°15'816.0
2018-Aug-10 11:00N 36°29' E 013°08'816.0
2018-Aug-10 10:30N 36°34' E 012°59'815.8
2018-Aug-10 10:00N 36°38' E 012°51'815.2
2018-Aug-10 09:30N 36°43' E 012°44'815.0
2018-Aug-10 09:00N 36°47' E 012°36'814.9
2018-Aug-10 08:29N 36°52' E 012°28'15814.2
2018-Aug-09 21:24N 39°24' E 011°39'614.6
2018-Aug-09 21:00N 39°30' E 011°39'154 9.0
2018-Aug-09 03:55N 42°04' E 011°42'3 2.4
2018-Aug-09 02:51N 42°04' E 011°39'4914.0
2018-Aug-08 23:22N 42°09' E 010°33'614.7
2018-Aug-08 22:56N 42°10' E 010°25'714.9
2018-Aug-08 22:27N 42°11' E 010°15'815.2
2018-Aug-08 21:55N 42°14' E 010°05'716.0
2018-Aug-08 21:30N 42°17' E 009°57'1515.3
2018-Aug-08 20:33N 42°30' E 009°47'216.4
2018-Aug-08 20:25N 42°32' E 009°46'1016.2
2018-Aug-08 19:47N 42°42' E 009°41'2516.0
2018-Aug-08 18:15N 43°06' E 009°36'415.9
2018-Aug-08 18:00N 43°08' E 009°40'816.0
2018-Aug-08 17:30N 43°12' E 009°49'815.7
2018-Aug-08 17:00N 43°17' E 009°58'815.8
2018-Aug-08 16:30N 43°23' E 010°04'815.4
2018-Aug-08 16:00N 43°30' E 010°10'611.6
2018-Aug-08 15:30N 43°32' E 010°17'2 4.5
2018-Aug-08 15:00N 43°35' E 010°18'0 0.0
2018-Aug-08 14:25N 43°35' E 010°18'0 0.0
2018-Aug-08 13:58N 43°35' E 010°18'0 0.0
2018-Aug-08 13:31N 43°35' E 010°18'0 0.0
2018-Aug-08 13:00N 43°35' E 010°18'0 0.1
2018-Aug-08 12:27N 43°35' E 010°18'0 0.1
2018-Aug-08 12:00N 43°35' E 010°18'0 0.0
2018-Aug-08 11:24N 43°35' E 010°18'0 0.0
2018-Aug-08 11:00N 43°35' E 010°18'0 0.0
2018-Aug-08 10:21N 43°35' E 010°18'0 0.0
2018-Aug-08 10:00N 43°35' E 010°18'0 0.0
2018-Aug-08 09:30N 43°35' E 010°18'0 0.0
2018-Aug-08 09:00N 43°35' E 010°18'0 0.0
2018-Aug-08 08:30N 43°35' E 010°18'0 0.0
2018-Aug-08 07:51N 43°35' E 010°18'0 0.0
2018-Aug-08 07:30N 43°35' E 010°18'0 0.0
2018-Aug-08 07:00N 43°35' E 010°18'0 0.0
2018-Aug-08 06:30N 43°35' E 010°18'0 0.0
2018-Aug-08 06:00N 43°35' E 010°18'0 0.0
2018-Aug-08 05:27N 43°35' E 010°18'0 0.0
2018-Aug-08 05:00N 43°35' E 010°18'0 0.0
2018-Aug-08 04:30N 43°35' E 010°18'0 0.9
2018-Aug-08 04:00N 43°34' E 010°18'3 6.4
2018-Aug-08 03:30N 43°32' E 010°16'0 0.4
2018-Aug-08 03:00N 43°32' E 010°15'2 4.9
2018-Aug-08 02:30N 43°30' E 010°14'6 9.1
2018-Aug-08 01:51N 43°25' E 010°08'3 9.2
2018-Aug-08 01:30N 43°23' E 010°05'5 9.4
2018-Aug-08 01:00N 43°19' E 010°01'1 2.4
2018-Aug-08 00:30N 43°18' E 010°00'0 0.3
2018-Aug-08 00:00N 43°18' E 009°60'0 0.4
2018-Aug-07 23:30N 43°18' E 009°60'0 0.3
2018-Aug-07 23:00N 43°18' E 009°59'0 0.5
2018-Aug-07 22:30N 43°18' E 009°59'0 0.9
2018-Aug-07 22:00N 43°18' E 009°58'2 4.3
2018-Aug-07 21:30N 43°17' E 009°56'4 7.2
2018-Aug-07 21:00N 43°16' E 009°51'4 7.5
2018-Aug-07 20:30N 43°19' E 009°48'5 9.3
2018-Aug-07 20:00N 43°23' E 009°45'5 9.2
2018-Aug-07 19:30N 43°27' E 009°41'5 9.1
2018-Aug-07 19:00N 43°31' E 009°38'5 9.0
2018-Aug-07 18:30N 43°35' E 009°35'5 9.0
2018-Aug-07 18:00N 43°38' E 009°32'4 8.9
2018-Aug-07 17:30N 43°42' E 009°29'4 8.9
2018-Aug-07 17:00N 43°46' E 009°25'4 8.8
2018-Aug-07 16:30N 43°50' E 009°22'4 8.7
2018-Aug-07 16:00N 43°54' E 009°19'4 8.6
2018-Aug-07 15:30N 43°57' E 009°16'4 8.7
2018-Aug-07 15:00N 44°01' E 009°13'510.1
2018-Aug-07 14:30N 44°05' E 009°10'713.9
2018-Aug-07 14:00N 44°11' E 009°05'815.5
2018-Aug-07 13:31N 44°18' E 008°59'612.5
2018-Aug-07 13:01N 44°24' E 008°56'1 2.4
2018-Aug-07 12:30N 44°24' E 008°54'0 0.0
2018-Aug-07 11:57N 44°24' E 008°54'0 0.0
2018-Aug-07 11:30N 44°24' E 008°54'0 0.0
2018-Aug-07 11:00N 44°24' E 008°54'0 0.0
2018-Aug-07 10:26N 44°24' E 008°54'0 0.0
2018-Aug-07 09:56N 44°24' E 008°54'0 0.0
2018-Aug-07 09:29N 44°24' E 008°54'0 0.0
2018-Aug-07 08:59N 44°24' E 008°54'0 0.0
2018-Aug-07 08:29N 44°24' E 008°54'0 0.0
2018-Aug-07 07:59N 44°24' E 008°54'0 0.0
2018-Aug-07 07:29N 44°24' E 008°54'0 0.0
2018-Aug-07 06:59N 44°24' E 008°54'0 0.0
2018-Aug-07 06:29N 44°24' E 008°54'0 0.0
2018-Aug-07 05:56N 44°24' E 008°54'0 0.0
2018-Aug-07 05:26N 44°24' E 008°54'0 0.0
2018-Aug-07 04:50N 44°24' E 008°54'0 0.0
2018-Aug-07 04:20N 44°24' E 008°54'0 0.0
2018-Aug-07 03:59N 44°24' E 008°54'0 0.0
2018-Aug-07 03:30N 44°24' E 008°54'3 5.1
2018-Aug-07 03:00N 44°23' E 008°57'4 8.8
2018-Aug-07 02:31N 44°19' E 008°59'4 8.1
2018-Aug-07 02:00N 44°15' E 008°57'510.5
2018-Aug-07 01:30N 44°10' E 008°55'4 8.0
2018-Aug-07 01:00N 44°06' E 008°53'4 8.1
2018-Aug-07 00:31N 44°03' E 008°50'4 8.0
2018-Aug-07 00:00N 43°60' E 008°46'4 8.1
2018-Aug-06 23:31N 43°57' E 008°42'4 8.2
2018-Aug-06 23:01N 43°55' E 008°37'4 8.1
2018-Aug-06 22:31N 43°52' E 008°33'713.2
2018-Aug-06 22:01N 43°48' E 008°26'714.9
2018-Aug-06 21:30N 43°44' E 008°17'814.9
2018-Aug-06 21:00N 43°39' E 008°09'714.9
2018-Aug-06 20:31N 43°35' E 008°01'815.0
2018-Aug-06 20:00N 43°30' E 007°53'815.2
2018-Aug-06 19:30N 43°26' E 007°44'715.2
2018-Aug-06 19:00N 43°21' E 007°36'815.2
2018-Aug-06 18:30N 43°17' E 007°27'815.4
2018-Aug-06 18:00N 43°12' E 007°19'815.6
2018-Aug-06 17:28N 43°07' E 007°10'715.4
2018-Aug-06 17:00N 43°02' E 007°02'815.3
2018-Aug-06 16:30N 42°58' E 006°54'1315.2
2018-Aug-06 15:39N 42°50' E 006°40'215.2
2018-Aug-06 15:30N 42°49' E 006°38'814.9
2018-Aug-06 14:57N 42°44' E 006°28'715.1
2018-Aug-06 14:31N 42°44' E 006°19'5714.0
2018-Aug-06 10:24N 43°10' E 005°10'1213.5
2018-Aug-06 09:31N 43°20' E 005°18'2 0.0
2018-Aug-04 14:14N 43°21' E 005°20'0 0.5
2018-Aug-04 14:00N 43°21' E 005°20'4 8.6
2018-Aug-04 13:30N 43°19' E 005°15'5 9.4
2018-Aug-04 13:00N 43°15' E 005°10'612.6
2018-Aug-04 12:29N 43°09' E 005°10'6 2.6
2018-Aug-04 10:17N 43°03' E 005°09'25 5.0
2018-Aug-04 05:21N 42°38' E 005°11'1 0.4
2018-Aug-04 03:39N 42°39' E 005°12'2 0.4
2018-Aug-03 23:57N 42°40' E 005°11'0 0.3
2018-Aug-03 23:30N 42°41' E 005°11'1 0.2
2018-Aug-03 18:27N 42°40' E 005°11'0 0.5
2018-Aug-03 17:56N 42°40' E 005°11'0 0.6
2018-Aug-03 17:30N 42°39' E 005°11'0 0.5
2018-Aug-03 17:00N 42°39' E 005°11'0 0.5
2018-Aug-03 16:29N 42°39' E 005°12'0 0.4
2018-Aug-03 16:00N 42°39' E 005°12'0 0.4
2018-Aug-03 15:30N 42°39' E 005°12'1 0.2
2018-Aug-03 12:30N 42°39' E 005°13'0 0.2
2018-Aug-03 11:55N 42°39' E 005°13'1 0.2
2018-Aug-03 07:20N 42°39' E 005°11'0 0.4
2018-Aug-03 06:58N 42°39' E 005°11'0 0.5
2018-Aug-03 06:19N 42°38' E 005°11'  

Dump ship's entire track history